sensor_id;sensor_type;location;lat;lon;timestamp;P1;durP1;ratioP1;P2;durP2;ratioP2
51758;SDS011;66684;47.568;18.734;2023-03-09T00:02:20;6.32;;;2.40;;
51758;SDS011;66684;47.568;18.734;2023-03-09T00:04:46;5.50;;;2.00;;
51758;SDS011;66684;47.568;18.734;2023-03-09T00:07:12;3.83;;;1.92;;
51758;SDS011;66684;47.568;18.734;2023-03-09T00:09:38;4.85;;;1.77;;
51758;SDS011;66684;47.568;18.734;2023-03-09T00:12:04;5.32;;;2.03;;
51758;SDS011;66684;47.568;18.734;2023-03-09T00:14:30;4.53;;;1.80;;
51758;SDS011;66684;47.568;18.734;2023-03-09T00:16:56;3.40;;;1.83;;
51758;SDS011;66684;47.568;18.734;2023-03-09T00:19:21;4.40;;;1.90;;
51758;SDS011;66684;47.568;18.734;2023-03-09T00:21:53;5.70;;;1.85;;
51758;SDS011;66684;47.568;18.734;2023-03-09T00:24:21;5.47;;;2.37;;
51758;SDS011;66684;47.568;18.734;2023-03-09T00:26:59;3.55;;;1.90;;
51758;SDS011;66684;47.568;18.734;2023-03-09T00:29:27;4.60;;;2.10;;
51758;SDS011;66684;47.568;18.734;2023-03-09T00:31:56;6.37;;;3.22;;
51758;SDS011;66684;47.568;18.734;2023-03-09T00:34:22;4.80;;;2.70;;
51758;SDS011;66684;47.568;18.734;2023-03-09T00:36:48;4.90;;;2.50;;
51758;SDS011;66684;47.568;18.734;2023-03-09T00:39:15;3.72;;;2.35;;
51758;SDS011;66684;47.568;18.734;2023-03-09T00:41:42;6.07;;;2.78;;
51758;SDS011;66684;47.568;18.734;2023-03-09T00:44:09;15.18;;;10.25;;
51758;SDS011;66684;47.568;18.734;2023-03-09T00:46:36;19.83;;;11.05;;
51758;SDS011;66684;47.568;18.734;2023-03-09T00:49:02;13.88;;;7.55;;
51758;SDS011;66684;47.568;18.734;2023-03-09T00:51:32;8.45;;;3.20;;
51758;SDS011;66684;47.568;18.734;2023-03-09T00:53:59;9.57;;;4.78;;
51758;SDS011;66684;47.568;18.734;2023-03-09T00:56:26;6.93;;;3.33;;
51758;SDS011;66684;47.568;18.734;2023-03-09T00:58:55;9.75;;;5.25;;
51758;SDS011;66684;47.568;18.734;2023-03-09T01:01:22;42.62;;;24.27;;
51758;SDS011;66684;47.568;18.734;2023-03-09T01:03:49;20.55;;;12.27;;
51758;SDS011;66684;47.568;18.734;2023-03-09T01:06:15;7.93;;;3.90;;
51758;SDS011;66684;47.568;18.734;2023-03-09T01:08:42;33.50;;;17.83;;
51758;SDS011;66684;47.568;18.734;2023-03-09T01:11:09;22.70;;;13.23;;
51758;SDS011;66684;47.568;18.734;2023-03-09T01:13:36;19.00;;;10.50;;
51758;SDS011;66684;47.568;18.734;2023-03-09T01:16:03;37.35;;;18.50;;
51758;SDS011;66684;47.568;18.734;2023-03-09T01:18:29;34.17;;;17.45;;
51758;SDS011;66684;47.568;18.734;2023-03-09T01:20:56;16.30;;;7.45;;
51758;SDS011;66684;47.568;18.734;2023-03-09T01:23:23;22.27;;;10.85;;
51758;SDS011;66684;47.568;18.734;2023-03-09T01:25:49;21.10;;;10.25;;
51758;SDS011;66684;47.568;18.734;2023-03-09T01:28:15;19.92;;;10.15;;
51758;SDS011;66684;47.568;18.734;2023-03-09T01:30:41;15.23;;;8.00;;
51758;SDS011;66684;47.568;18.734;2023-03-09T01:33:07;14.13;;;6.37;;
51758;SDS011;66684;47.568;18.734;2023-03-09T01:35:33;9.75;;;4.93;;
51758;SDS011;66684;47.568;18.734;2023-03-09T01:37:59;14.02;;;7.53;;
51758;SDS011;66684;47.568;18.734;2023-03-09T01:40:25;14.30;;;7.65;;
51758;SDS011;66684;47.568;18.734;2023-03-09T01:43:23;9.23;;;5.87;;
51758;SDS011;66684;47.568;18.734;2023-03-09T01:48:51;7.37;;;4.03;;
51758;SDS011;66684;47.568;18.734;2023-03-09T01:57:17;6.45;;;2.55;;
51758;SDS011;66684;47.568;18.734;2023-03-09T01:59:51;7.55;;;2.90;;
51758;SDS011;66684;47.568;18.734;2023-03-09T02:02:18;7.05;;;3.28;;
51758;SDS011;66684;47.568;18.734;2023-03-09T02:04:50;4.22;;;2.37;;
51758;SDS011;66684;47.568;18.734;2023-03-09T02:07:19;4.78;;;2.92;;
51758;SDS011;66684;47.568;18.734;2023-03-09T02:09:56;8.80;;;3.72;;
51758;SDS011;66684;47.568;18.734;2023-03-09T02:12:28;5.62;;;3.30;;
51758;SDS011;66684;47.568;18.734;2023-03-09T02:14:54;8.43;;;3.97;;
51758;SDS011;66684;47.568;18.734;2023-03-09T02:17:20;6.03;;;3.00;;
51758;SDS011;66684;47.568;18.734;2023-03-09T02:22:32;8.00;;;3.08;;
51758;SDS011;66684;47.568;18.734;2023-03-09T02:25:07;5.32;;;3.15;;
51758;SDS011;66684;47.568;18.734;2023-03-09T02:27:36;5.60;;;2.80;;
51758;SDS011;66684;47.568;18.734;2023-03-09T02:30:02;6.15;;;3.28;;
51758;SDS011;66684;47.568;18.734;2023-03-09T02:32:29;8.85;;;2.78;;
51758;SDS011;66684;47.568;18.734;2023-03-09T02:34:56;5.75;;;3.00;;
51758;SDS011;66684;47.568;18.734;2023-03-09T02:40:24;6.00;;;2.83;;
51758;SDS011;66684;47.568;18.734;2023-03-09T02:42:54;6.07;;;2.80;;
51758;SDS011;66684;47.568;18.734;2023-03-09T02:45:21;6.55;;;2.97;;
51758;SDS011;66684;47.568;18.734;2023-03-09T02:47:48;8.27;;;3.15;;
51758;SDS011;66684;47.568;18.734;2023-03-09T02:50:14;5.03;;;3.08;;
51758;SDS011;66684;47.568;18.734;2023-03-09T02:52:41;7.10;;;3.42;;
51758;SDS011;66684;47.568;18.734;2023-03-09T02:55:07;6.50;;;2.60;;
51758;SDS011;66684;47.568;18.734;2023-03-09T02:57:33;4.70;;;2.85;;
51758;SDS011;66684;47.568;18.734;2023-03-09T02:59:59;4.72;;;2.75;;
51758;SDS011;66684;47.568;18.734;2023-03-09T03:02:25;7.25;;;3.17;;
51758;SDS011;66684;47.568;18.734;2023-03-09T03:04:51;4.80;;;3.00;;
51758;SDS011;66684;47.568;18.734;2023-03-09T03:07:17;5.22;;;2.92;;
51758;SDS011;66684;47.568;18.734;2023-03-09T03:09:43;6.75;;;3.10;;
51758;SDS011;66684;47.568;18.734;2023-03-09T03:12:09;8.02;;;3.10;;
51758;SDS011;66684;47.568;18.734;2023-03-09T03:14:35;9.02;;;3.40;;
51758;SDS011;66684;47.568;18.734;2023-03-09T03:17:01;4.82;;;2.78;;
51758;SDS011;66684;47.568;18.734;2023-03-09T03:19:27;8.27;;;3.03;;
51758;SDS011;66684;47.568;18.734;2023-03-09T03:21:53;8.75;;;3.37;;
51758;SDS011;66684;47.568;18.734;2023-03-09T03:24:19;7.12;;;3.42;;
51758;SDS011;66684;47.568;18.734;2023-03-09T03:26:44;13.40;;;5.78;;
51758;SDS011;66684;47.568;18.734;2023-03-09T03:29:10;6.45;;;3.72;;
51758;SDS011;66684;47.568;18.734;2023-03-09T03:31:36;9.13;;;4.12;;
51758;SDS011;66684;47.568;18.734;2023-03-09T03:34:03;6.72;;;4.10;;
51758;SDS011;66684;47.568;18.734;2023-03-09T03:36:29;8.43;;;3.95;;
51758;SDS011;66684;47.568;18.734;2023-03-09T03:38:55;11.45;;;4.93;;
51758;SDS011;66684;47.568;18.734;2023-03-09T03:41:21;7.70;;;4.10;;
51758;SDS011;66684;47.568;18.734;2023-03-09T03:43:46;6.32;;;3.60;;
51758;SDS011;66684;47.568;18.734;2023-03-09T03:46:12;6.00;;;3.42;;
51758;SDS011;66684;47.568;18.734;2023-03-09T03:48:38;6.75;;;3.42;;
51758;SDS011;66684;47.568;18.734;2023-03-09T03:51:04;8.52;;;3.47;;
51758;SDS011;66684;47.568;18.734;2023-03-09T03:53:31;8.35;;;3.15;;
51758;SDS011;66684;47.568;18.734;2023-03-09T03:55:57;6.05;;;2.97;;
51758;SDS011;66684;47.568;18.734;2023-03-09T03:58:23;7.95;;;3.53;;
51758;SDS011;66684;47.568;18.734;2023-03-09T04:00:49;6.78;;;3.62;;
51758;SDS011;66684;47.568;18.734;2023-03-09T04:03:15;14.25;;;9.10;;
51758;SDS011;66684;47.568;18.734;2023-03-09T04:05:41;6.68;;;4.32;;
51758;SDS011;66684;47.568;18.734;2023-03-09T04:08:07;7.22;;;3.92;;
51758;SDS011;66684;47.568;18.734;2023-03-09T04:10:33;9.23;;;4.00;;
51758;SDS011;66684;47.568;18.734;2023-03-09T04:12:59;9.82;;;4.45;;
51758;SDS011;66684;47.568;18.734;2023-03-09T04:15:25;8.25;;;4.87;;
51758;SDS011;66684;47.568;18.734;2023-03-09T04:17:51;9.50;;;5.85;;
51758;SDS011;66684;47.568;18.734;2023-03-09T04:20:17;9.20;;;4.20;;
51758;SDS011;66684;47.568;18.734;2023-03-09T04:22:43;7.47;;;4.50;;
51758;SDS011;66684;47.568;18.734;2023-03-09T04:25:09;7.22;;;4.65;;
51758;SDS011;66684;47.568;18.734;2023-03-09T04:27:35;9.48;;;4.53;;
51758;SDS011;66684;47.568;18.734;2023-03-09T04:30:01;9.00;;;4.75;;
51758;SDS011;66684;47.568;18.734;2023-03-09T04:32:27;8.85;;;4.40;;
51758;SDS011;66684;47.568;18.734;2023-03-09T04:34:53;14.52;;;8.02;;
51758;SDS011;66684;47.568;18.734;2023-03-09T04:37:18;12.57;;;6.00;;
51758;SDS011;66684;47.568;18.734;2023-03-09T04:39:44;20.65;;;9.88;;
51758;SDS011;66684;47.568;18.734;2023-03-09T04:42:10;24.95;;;11.32;;
51758;SDS011;66684;47.568;18.734;2023-03-09T04:44:36;15.05;;;6.78;;
51758;SDS011;66684;47.568;18.734;2023-03-09T04:47:02;12.37;;;4.85;;
51758;SDS011;66684;47.568;18.734;2023-03-09T04:49:29;9.13;;;4.45;;
51758;SDS011;66684;47.568;18.734;2023-03-09T04:51:55;9.68;;;4.62;;
51758;SDS011;66684;47.568;18.734;2023-03-09T04:54:21;8.50;;;4.37;;
51758;SDS011;66684;47.568;18.734;2023-03-09T04:56:46;7.93;;;3.65;;
51758;SDS011;66684;47.568;18.734;2023-03-09T04:59:12;10.57;;;4.07;;
51758;SDS011;66684;47.568;18.734;2023-03-09T05:01:38;9.23;;;4.07;;
51758;SDS011;66684;47.568;18.734;2023-03-09T05:04:04;7.68;;;4.12;;
51758;SDS011;66684;47.568;18.734;2023-03-09T05:06:30;9.88;;;3.90;;
51758;SDS011;66684;47.568;18.734;2023-03-09T05:08:56;11.35;;;3.87;;
51758;SDS011;66684;47.568;18.734;2023-03-09T05:11:23;10.02;;;3.53;;
51758;SDS011;66684;47.568;18.734;2023-03-09T05:13:49;7.47;;;3.95;;
51758;SDS011;66684;47.568;18.734;2023-03-09T05:16:15;17.17;;;9.30;;
51758;SDS011;66684;47.568;18.734;2023-03-09T05:18:41;12.10;;;7.12;;
51758;SDS011;66684;47.568;18.734;2023-03-09T05:21:07;14.73;;;6.60;;
51758;SDS011;66684;47.568;18.734;2023-03-09T05:23:34;12.77;;;5.75;;
51758;SDS011;66684;47.568;18.734;2023-03-09T05:26:01;11.00;;;4.85;;
51758;SDS011;66684;47.568;18.734;2023-03-09T05:28:36;17.35;;;6.72;;
51758;SDS011;66684;47.568;18.734;2023-03-09T05:31:10;36.22;;;16.52;;
51758;SDS011;66684;47.568;18.734;2023-03-09T05:33:37;33.95;;;15.40;;
51758;SDS011;66684;47.568;18.734;2023-03-09T05:36:09;37.13;;;17.85;;
51758;SDS011;66684;47.568;18.734;2023-03-09T05:38:43;31.92;;;15.82;;
51758;SDS011;66684;47.568;18.734;2023-03-09T05:41:09;31.35;;;13.62;;
51758;SDS011;66684;47.568;18.734;2023-03-09T05:43:35;29.55;;;14.73;;
51758;SDS011;66684;47.568;18.734;2023-03-09T05:46:01;24.30;;;12.23;;
51758;SDS011;66684;47.568;18.734;2023-03-09T05:48:28;25.50;;;14.73;;
51758;SDS011;66684;47.568;18.734;2023-03-09T05:50:54;19.15;;;10.05;;
51758;SDS011;66684;47.568;18.734;2023-03-09T05:53:25;77.32;;;34.90;;
51758;SDS011;66684;47.568;18.734;2023-03-09T05:55:51;78.87;;;36.75;;
51758;SDS011;66684;47.568;18.734;2023-03-09T05:58:18;126.20;;;58.60;;
51758;SDS011;66684;47.568;18.734;2023-03-09T06:00:44;110.88;;;52.17;;
51758;SDS011;66684;47.568;18.734;2023-03-09T06:03:10;100.25;;;50.15;;
51758;SDS011;66684;47.568;18.734;2023-03-09T06:05:36;125.87;;;58.65;;
51758;SDS011;66684;47.568;18.734;2023-03-09T06:08:02;113.22;;;52.97;;
51758;SDS011;66684;47.568;18.734;2023-03-09T06:10:28;58.40;;;30.90;;
51758;SDS011;66684;47.568;18.734;2023-03-09T06:12:53;161.57;;;68.03;;
51758;SDS011;66684;47.568;18.734;2023-03-09T06:15:19;167.13;;;73.65;;
51758;SDS011;66684;47.568;18.734;2023-03-09T06:17:45;72.47;;;29.73;;
51758;SDS011;66684;47.568;18.734;2023-03-09T06:20:11;101.03;;;45.83;;
51758;SDS011;66684;47.568;18.734;2023-03-09T06:22:37;63.85;;;27.33;;
51758;SDS011;66684;47.568;18.734;2023-03-09T06:25:06;35.28;;;15.55;;
51758;SDS011;66684;47.568;18.734;2023-03-09T06:27:33;25.35;;;11.63;;
51758;SDS011;66684;47.568;18.734;2023-03-09T06:29:59;21.70;;;10.20;;
51758;SDS011;66684;47.568;18.734;2023-03-09T06:32:25;11.20;;;6.05;;
51758;SDS011;66684;47.568;18.734;2023-03-09T06:34:51;16.58;;;10.23;;
51758;SDS011;66684;47.568;18.734;2023-03-09T06:37:17;14.30;;;8.30;;
51758;SDS011;66684;47.568;18.734;2023-03-09T06:39:43;11.82;;;5.93;;
51758;SDS011;66684;47.568;18.734;2023-03-09T06:42:09;13.75;;;6.05;;
51758;SDS011;66684;47.568;18.734;2023-03-09T06:44:35;16.77;;;6.00;;
51758;SDS011;66684;47.568;18.734;2023-03-09T06:47:01;10.65;;;5.90;;
51758;SDS011;66684;47.568;18.734;2023-03-09T06:49:27;8.50;;;5.25;;
51758;SDS011;66684;47.568;18.734;2023-03-09T06:51:53;9.25;;;4.82;;
51758;SDS011;66684;47.568;18.734;2023-03-09T06:54:19;9.77;;;4.95;;
51758;SDS011;66684;47.568;18.734;2023-03-09T06:56:45;11.25;;;5.07;;
51758;SDS011;66684;47.568;18.734;2023-03-09T06:59:10;10.20;;;5.05;;
51758;SDS011;66684;47.568;18.734;2023-03-09T07:01:36;13.00;;;5.50;;
51758;SDS011;66684;47.568;18.734;2023-03-09T07:04:02;9.88;;;5.20;;
51758;SDS011;66684;47.568;18.734;2023-03-09T07:06:28;9.93;;;5.70;;
51758;SDS011;66684;47.568;18.734;2023-03-09T07:08:54;14.57;;;6.50;;
51758;SDS011;66684;47.568;18.734;2023-03-09T07:11:20;14.82;;;6.47;;
51758;SDS011;66684;47.568;18.734;2023-03-09T07:13:46;11.98;;;6.00;;
51758;SDS011;66684;47.568;18.734;2023-03-09T07:16:12;13.77;;;6.95;;
51758;SDS011;66684;47.568;18.734;2023-03-09T07:18:38;13.70;;;6.47;;
51758;SDS011;66684;47.568;18.734;2023-03-09T07:21:04;14.00;;;6.25;;
51758;SDS011;66684;47.568;18.734;2023-03-09T07:23:30;13.88;;;6.07;;
51758;SDS011;66684;47.568;18.734;2023-03-09T07:26:00;11.63;;;6.43;;
51758;SDS011;66684;47.568;18.734;2023-03-09T07:28:28;10.77;;;5.57;;
51758;SDS011;66684;47.568;18.734;2023-03-09T07:30:54;14.93;;;6.37;;
51758;SDS011;66684;47.568;18.734;2023-03-09T07:33:20;15.85;;;6.82;;
51758;SDS011;66684;47.568;18.734;2023-03-09T07:35:46;25.88;;;11.77;;
51758;SDS011;66684;47.568;18.734;2023-03-09T07:38:12;29.85;;;12.18;;
51758;SDS011;66684;47.568;18.734;2023-03-09T07:40:39;28.08;;;11.15;;
51758;SDS011;66684;47.568;18.734;2023-03-09T07:43:05;22.00;;;10.35;;
51758;SDS011;66684;47.568;18.734;2023-03-09T07:45:31;22.48;;;9.82;;
51758;SDS011;66684;47.568;18.734;2023-03-09T07:47:57;22.13;;;9.75;;
51758;SDS011;66684;47.568;18.734;2023-03-09T07:50:23;15.70;;;8.43;;
51758;SDS011;66684;47.568;18.734;2023-03-09T07:52:49;16.73;;;8.23;;
51758;SDS011;66684;47.568;18.734;2023-03-09T07:55:15;14.68;;;7.43;;
51758;SDS011;66684;47.568;18.734;2023-03-09T07:57:41;15.35;;;6.65;;
51758;SDS011;66684;47.568;18.734;2023-03-09T08:00:10;14.55;;;7.22;;
51758;SDS011;66684;47.568;18.734;2023-03-09T08:02:38;17.20;;;7.35;;
51758;SDS011;66684;47.568;18.734;2023-03-09T08:05:06;17.45;;;7.12;;
51758;SDS011;66684;47.568;18.734;2023-03-09T08:07:33;13.82;;;7.32;;
51758;SDS011;66684;47.568;18.734;2023-03-09T08:09:59;15.40;;;7.70;;
51758;SDS011;66684;47.568;18.734;2023-03-09T08:12:25;13.88;;;7.30;;
51758;SDS011;66684;47.568;18.734;2023-03-09T08:14:51;15.05;;;7.30;;
51758;SDS011;66684;47.568;18.734;2023-03-09T08:17:17;15.80;;;7.78;;
51758;SDS011;66684;47.568;18.734;2023-03-09T08:19:44;12.48;;;8.18;;
51758;SDS011;66684;47.568;18.734;2023-03-09T08:22:10;14.65;;;8.40;;
51758;SDS011;66684;47.568;18.734;2023-03-09T08:24:36;40.03;;;22.25;;
51758;SDS011;66684;47.568;18.734;2023-03-09T08:27:02;33.00;;;19.58;;
51758;SDS011;66684;47.568;18.734;2023-03-09T08:29:28;43.15;;;22.65;;
51758;SDS011;66684;47.568;18.734;2023-03-09T08:31:54;46.40;;;25.67;;
51758;SDS011;66684;47.568;18.734;2023-03-09T08:34:20;31.23;;;14.93;;
51758;SDS011;66684;47.568;18.734;2023-03-09T08:36:46;10.25;;;4.00;;
51758;SDS011;66684;47.568;18.734;2023-03-09T08:39:12;10.65;;;3.53;;
51758;SDS011;66684;47.568;18.734;2023-03-09T08:41:38;9.65;;;3.42;;
51758;SDS011;66684;47.568;18.734;2023-03-09T08:44:04;9.52;;;3.30;;
51758;SDS011;66684;47.568;18.734;2023-03-09T08:46:30;5.68;;;2.42;;
51758;SDS011;66684;47.568;18.734;2023-03-09T08:48:56;7.55;;;2.90;;
51758;SDS011;66684;47.568;18.734;2023-03-09T08:51:22;6.65;;;3.05;;
51758;SDS011;66684;47.568;18.734;2023-03-09T08:53:48;12.65;;;2.90;;
51758;SDS011;66684;47.568;18.734;2023-03-09T08:56:14;10.05;;;2.92;;
51758;SDS011;66684;47.568;18.734;2023-03-09T08:58:40;7.00;;;2.35;;
51758;SDS011;66684;47.568;18.734;2023-03-09T09:01:07;7.30;;;2.37;;
51758;SDS011;66684;47.568;18.734;2023-03-09T09:03:34;6.20;;;2.08;;
51758;SDS011;66684;47.568;18.734;2023-03-09T09:06:05;6.65;;;2.30;;
51758;SDS011;66684;47.568;18.734;2023-03-09T09:08:32;6.22;;;2.37;;
51758;SDS011;66684;47.568;18.734;2023-03-09T09:10:59;5.80;;;2.22;;
51758;SDS011;66684;47.568;18.734;2023-03-09T09:13:25;5.62;;;2.40;;
51758;SDS011;66684;47.568;18.734;2023-03-09T09:15:51;19.35;;;2.70;;
51758;SDS011;66684;47.568;18.734;2023-03-09T09:18:21;7.22;;;2.30;;
51758;SDS011;66684;47.568;18.734;2023-03-09T09:20:47;6.70;;;2.55;;
51758;SDS011;66684;47.568;18.734;2023-03-09T09:23:13;8.65;;;3.33;;
51758;SDS011;66684;47.568;18.734;2023-03-09T09:25:39;6.85;;;2.40;;
51758;SDS011;66684;47.568;18.734;2023-03-09T09:28:06;6.15;;;2.42;;
51758;SDS011;66684;47.568;18.734;2023-03-09T09:30:32;9.05;;;3.37;;
51758;SDS011;66684;47.568;18.734;2023-03-09T09:33:01;5.00;;;2.28;;
51758;SDS011;66684;47.568;18.734;2023-03-09T09:35:27;6.72;;;1.90;;
51758;SDS011;66684;47.568;18.734;2023-03-09T09:37:53;5.78;;;1.92;;
51758;SDS011;66684;47.568;18.734;2023-03-09T09:40:20;3.30;;;1.33;;
51758;SDS011;66684;47.568;18.734;2023-03-09T09:42:46;4.05;;;1.70;;
51758;SDS011;66684;47.568;18.734;2023-03-09T09:45:21;6.20;;;1.90;;
51758;SDS011;66684;47.568;18.734;2023-03-09T09:47:52;4.03;;;1.90;;
51758;SDS011;66684;47.568;18.734;2023-03-09T09:50:21;5.12;;;1.95;;
51758;SDS011;66684;47.568;18.734;2023-03-09T09:52:55;4.75;;;1.48;;
51758;SDS011;66684;47.568;18.734;2023-03-09T09:55:31;6.65;;;1.60;;
51758;SDS011;66684;47.568;18.734;2023-03-09T10:00:40;4.55;;;1.60;;
51758;SDS011;66684;47.568;18.734;2023-03-09T10:03:12;6.50;;;1.50;;
51758;SDS011;66684;47.568;18.734;2023-03-09T10:06:04;5.93;;;1.52;;
51758;SDS011;66684;47.568;18.734;2023-03-09T10:08:42;7.87;;;1.50;;
51758;SDS011;66684;47.568;18.734;2023-03-09T10:13:50;3.90;;;1.40;;
51758;SDS011;66684;47.568;18.734;2023-03-09T10:16:41;4.60;;;1.42;;
51758;SDS011;66684;47.568;18.734;2023-03-09T10:19:22;3.22;;;1.00;;
51758;SDS011;66684;47.568;18.734;2023-03-09T10:22:07;1.95;;;0.88;;
51758;SDS011;66684;47.568;18.734;2023-03-09T10:24:40;4.15;;;1.20;;
51758;SDS011;66684;47.568;18.734;2023-03-09T10:32:51;3.15;;;1.10;;
51758;SDS011;66684;47.568;18.734;2023-03-09T10:37:56;5.15;;;1.35;;
51758;SDS011;66684;47.568;18.734;2023-03-09T10:40:35;4.72;;;1.50;;
51758;SDS011;66684;47.568;18.734;2023-03-09T10:43:09;5.80;;;1.45;;
51758;SDS011;66684;47.568;18.734;2023-03-09T10:45:42;8.88;;;3.90;;
51758;SDS011;66684;47.568;18.734;2023-03-09T10:48:08;8.73;;;3.30;;
51758;SDS011;66684;47.568;18.734;2023-03-09T10:58:42;3.75;;;0.70;;
51758;SDS011;66684;47.568;18.734;2023-03-09T11:03:38;2.45;;;0.60;;
51758;SDS011;66684;47.568;18.734;2023-03-09T11:09:15;1.55;;;0.65;;
51758;SDS011;66684;47.568;18.734;2023-03-09T11:11:47;3.17;;;1.00;;
51758;SDS011;66684;47.568;18.734;2023-03-09T11:16:52;5.35;;;0.85;;
51758;SDS011;66684;47.568;18.734;2023-03-09T11:19:20;2.28;;;0.85;;
51758;SDS011;66684;47.568;18.734;2023-03-09T11:24:22;2.35;;;0.70;;
51758;SDS011;66684;47.568;18.734;2023-03-09T11:27:04;2.25;;;0.70;;
51758;SDS011;66684;47.568;18.734;2023-03-09T11:32:07;5.45;;;0.95;;
51758;SDS011;66684;47.568;18.734;2023-03-09T11:34:35;6.82;;;0.80;;
51758;SDS011;66684;47.568;18.734;2023-03-09T11:42:19;3.00;;;0.88;;
51758;SDS011;66684;47.568;18.734;2023-03-09T11:45:26;2.83;;;0.77;;
51758;SDS011;66684;47.568;18.734;2023-03-09T11:50:58;5.07;;;0.70;;
51758;SDS011;66684;47.568;18.734;2023-03-09T11:56:32;2.33;;;0.60;;
51758;SDS011;66684;47.568;18.734;2023-03-09T12:01:37;2.83;;;0.80;;
51758;SDS011;66684;47.568;18.734;2023-03-09T12:04:14;3.12;;;0.90;;
51758;SDS011;66684;47.568;18.734;2023-03-09T12:06:43;2.78;;;0.88;;
51758;SDS011;66684;47.568;18.734;2023-03-09T12:09:22;2.22;;;0.90;;
51758;SDS011;66684;47.568;18.734;2023-03-09T12:12:08;2.58;;;0.73;;
51758;SDS011;66684;47.568;18.734;2023-03-09T12:14:45;2.33;;;0.90;;
51758;SDS011;66684;47.568;18.734;2023-03-09T12:17:17;3.65;;;1.33;;
51758;SDS011;66684;47.568;18.734;2023-03-09T12:19:48;4.68;;;1.00;;
51758;SDS011;66684;47.568;18.734;2023-03-09T12:22:18;2.30;;;0.90;;
51758;SDS011;66684;47.568;18.734;2023-03-09T12:24:55;3.47;;;0.88;;
51758;SDS011;66684;47.568;18.734;2023-03-09T12:27:24;2.17;;;0.85;;
51758;SDS011;66684;47.568;18.734;2023-03-09T12:32:49;5.75;;;1.37;;
51758;SDS011;66684;47.568;18.734;2023-03-09T12:42:52;1.60;;;0.50;;
51758;SDS011;66684;47.568;18.734;2023-03-09T13:08:59;6.18;;;0.30;;
51758;SDS011;66684;47.568;18.734;2023-03-09T13:19:53;0.30;;;0.10;;
51758;SDS011;66684;47.568;18.734;2023-03-09T13:22:21;0.47;;;0.20;;
51758;SDS011;66684;47.568;18.734;2023-03-09T13:24:50;2.08;;;0.28;;
51758;SDS011;66684;47.568;18.734;2023-03-09T13:27:38;2.90;;;0.40;;
51758;SDS011;66684;47.568;18.734;2023-03-09T13:35:24;2.72;;;0.20;;
51758;SDS011;66684;47.568;18.734;2023-03-09T13:37:57;6.72;;;0.30;;
51758;SDS011;66684;47.568;18.734;2023-03-09T13:40:30;3.17;;;0.30;;
51758;SDS011;66684;47.568;18.734;2023-03-09T13:42:58;0.77;;;0.10;;
51758;SDS011;66684;47.568;18.734;2023-03-09T13:45:28;1.87;;;0.20;;
51758;SDS011;66684;47.568;18.734;2023-03-09T13:47:57;0.50;;;0.10;;
51758;SDS011;66684;47.568;18.734;2023-03-09T13:50:25;6.93;;;0.10;;
51758;SDS011;66684;47.568;18.734;2023-03-09T13:55:57;0.60;;;0.10;;
51758;SDS011;66684;47.568;18.734;2023-03-09T13:58:26;3.08;;;0.10;;
51758;SDS011;66684;47.568;18.734;2023-03-09T14:03:24;1.95;;;0.30;;
51758;SDS011;66684;47.568;18.734;2023-03-09T14:06:12;5.25;;;0.50;;
51758;SDS011;66684;47.568;18.734;2023-03-09T14:08:41;8.27;;;0.57;;
51758;SDS011;66684;47.568;18.734;2023-03-09T14:11:15;4.50;;;0.65;;
51758;SDS011;66684;47.568;18.734;2023-03-09T14:13:47;1.45;;;0.20;;
51758;SDS011;66684;47.568;18.734;2023-03-09T14:16:33;2.20;;;0.10;;
51758;SDS011;66684;47.568;18.734;2023-03-09T14:19:00;3.00;;;0.20;;
51758;SDS011;66684;47.568;18.734;2023-03-09T14:21:29;2.25;;;0.20;;
51758;SDS011;66684;47.568;18.734;2023-03-09T14:24:11;4.07;;;0.30;;
51758;SDS011;66684;47.568;18.734;2023-03-09T14:26:46;1.73;;;0.35;;
51758;SDS011;66684;47.568;18.734;2023-03-09T14:29:30;2.87;;;0.25;;
51758;SDS011;66684;47.568;18.734;2023-03-09T14:34:53;1.95;;;0.20;;
51758;SDS011;66684;47.568;18.734;2023-03-09T14:37:24;2.60;;;0.20;;
51758;SDS011;66684;47.568;18.734;2023-03-09T14:39:56;4.53;;;0.20;;
51758;SDS011;66684;47.568;18.734;2023-03-09T14:42:31;3.25;;;0.30;;
51758;SDS011;66684;47.568;18.734;2023-03-09T14:47:40;1.75;;;0.20;;
51758;SDS011;66684;47.568;18.734;2023-03-09T14:50:12;2.72;;;0.20;;
51758;SDS011;66684;47.568;18.734;2023-03-09T14:55:05;6.97;;;0.30;;
51758;SDS011;66684;47.568;18.734;2023-03-09T14:57:38;5.47;;;0.30;;
51758;SDS011;66684;47.568;18.734;2023-03-09T15:00:04;3.05;;;0.30;;
51758;SDS011;66684;47.568;18.734;2023-03-09T15:02:32;3.20;;;0.20;;
51758;SDS011;66684;47.568;18.734;2023-03-09T15:04:58;2.33;;;0.20;;
51758;SDS011;66684;47.568;18.734;2023-03-09T15:07:24;11.95;;;0.40;;
51758;SDS011;66684;47.568;18.734;2023-03-09T15:09:50;3.00;;;0.10;;
51758;SDS011;66684;47.568;18.734;2023-03-09T15:12:19;5.43;;;0.30;;
51758;SDS011;66684;47.568;18.734;2023-03-09T15:14:47;4.43;;;0.20;;
51758;SDS011;66684;47.568;18.734;2023-03-09T15:17:15;4.25;;;0.50;;
51758;SDS011;66684;47.568;18.734;2023-03-09T15:19:43;5.60;;;0.20;;
51758;SDS011;66684;47.568;18.734;2023-03-09T15:22:13;4.65;;;0.20;;
51758;SDS011;66684;47.568;18.734;2023-03-09T15:24:41;4.95;;;0.20;;
51758;SDS011;66684;47.568;18.734;2023-03-09T15:27:08;1.77;;;0.20;;
51758;SDS011;66684;47.568;18.734;2023-03-09T15:29:35;8.15;;;3.70;;
51758;SDS011;66684;47.568;18.734;2023-03-09T15:32:02;2.15;;;0.20;;
51758;SDS011;66684;47.568;18.734;2023-03-09T15:34:33;1.85;;;0.20;;
51758;SDS011;66684;47.568;18.734;2023-03-09T15:37:01;1.12;;;0.10;;
51758;SDS011;66684;47.568;18.734;2023-03-09T15:39:27;5.25;;;0.30;;
51758;SDS011;66684;47.568;18.734;2023-03-09T15:41:52;7.20;;;0.20;;
51758;SDS011;66684;47.568;18.734;2023-03-09T15:44:18;4.10;;;0.20;;
51758;SDS011;66684;47.568;18.734;2023-03-09T15:46:44;3.08;;;0.30;;
51758;SDS011;66684;47.568;18.734;2023-03-09T15:49:11;3.37;;;0.17;;
51758;SDS011;66684;47.568;18.734;2023-03-09T15:51:36;2.62;;;0.20;;
51758;SDS011;66684;47.568;18.734;2023-03-09T15:54:03;5.75;;;0.28;;
51758;SDS011;66684;47.568;18.734;2023-03-09T15:56:30;2.08;;;0.30;;
51758;SDS011;66684;47.568;18.734;2023-03-09T15:58:58;7.05;;;0.20;;
51758;SDS011;66684;47.568;18.734;2023-03-09T16:01:24;1.58;;;0.20;;
51758;SDS011;66684;47.568;18.734;2023-03-09T16:03:51;1.67;;;0.20;;
51758;SDS011;66684;47.568;18.734;2023-03-09T16:06:18;3.30;;;0.20;;
51758;SDS011;66684;47.568;18.734;2023-03-09T16:08:47;1.27;;;0.20;;
51758;SDS011;66684;47.568;18.734;2023-03-09T16:11:13;3.55;;;0.40;;
51758;SDS011;66684;47.568;18.734;2023-03-09T16:13:40;2.20;;;0.30;;
51758;SDS011;66684;47.568;18.734;2023-03-09T16:16:08;5.72;;;0.40;;
51758;SDS011;66684;47.568;18.734;2023-03-09T16:18:35;4.10;;;0.30;;
51758;SDS011;66684;47.568;18.734;2023-03-09T16:21:01;1.45;;;0.30;;
51758;SDS011;66684;47.568;18.734;2023-03-09T16:23:28;3.08;;;0.30;;
51758;SDS011;66684;47.568;18.734;2023-03-09T16:25:54;5.53;;;0.52;;
51758;SDS011;66684;47.568;18.734;2023-03-09T16:28:22;1.10;;;0.30;;
51758;SDS011;66684;47.568;18.734;2023-03-09T16:30:49;3.05;;;0.30;;
51758;SDS011;66684;47.568;18.734;2023-03-09T16:33:15;2.85;;;0.40;;
51758;SDS011;66684;47.568;18.734;2023-03-09T16:35:41;2.37;;;0.37;;
51758;SDS011;66684;47.568;18.734;2023-03-09T16:38:10;3.05;;;0.52;;
51758;SDS011;66684;47.568;18.734;2023-03-09T16:40:37;2.75;;;0.30;;